Time;durP1;ratioP1;P1;durP2;ratioP2;P2;SDS_P1;SDS_P2;PMS_P1;PMS_P2;Temp;Humidity;BMP_temperature;BMP_pressure;BME280_temperature;BME280_humidity;BME280_pressure;Samples;Min_cycle;Max_cycle;Signal;HPM_P1;HPM_P2
2023/06/22 00:02:00;;;;;;;0.70;0.60;;;27.40;43.50;;;;;;5032261;28;20621;-75
2023/06/22 00:04:26;;;;;;;0.65;0.60;;;27.40;43.40;;;;;;5032574;28;20032;-75
2023/06/22 00:06:52;;;;;;;0.77;0.63;;;27.40;43.50;;;;;;5032572;28;20108;-75
2023/06/22 00:09:18;;;;;;;0.82;0.60;;;27.40;43.50;;;;;;5032446;28;20104;-76
2023/06/22 00:11:43;;;;;;;0.70;0.70;;;27.40;43.40;;;;;;5032361;28;20656;-75
2023/06/22 00:14:09;;;;;;;0.70;0.43;;;27.40;43.60;;;;;;5032298;28;20635;-75
2023/06/22 00:16:34;;;;;;;0.63;0.63;;;27.40;44.20;;;;;;5032313;28;20138;-75
2023/06/22 00:19:02;;;;;;;0.90;0.55;;;27.60;43.70;;;;;;5032470;28;20017;-75
2023/06/22 00:21:27;;;;;;;0.70;0.60;;;27.30;43.40;;;;;;5032192;28;20048;-75
2023/06/22 00:23:53;;;;;;;0.50;0.50;;;27.30;43.50;;;;;;5032216;28;20485;-76
2023/06/22 00:26:19;;;;;;;0.80;0.70;;;27.30;43.50;;;;;;5032153;28;20033;-76
2023/06/22 00:28:46;;;;;;;0.93;0.85;;;27.30;43.50;;;;;;5032252;28;20092;-76
2023/06/22 00:31:12;;;;;;;0.75;0.60;;;27.30;43.60;;;;;;5031854;28;20045;-76
2023/06/22 00:33:37;;;;;;;0.73;0.70;;;27.30;43.30;;;;;;5031998;28;20507;-76
2023/06/22 00:36:04;;;;;;;0.93;0.63;;;27.20;43.60;;;;;;5031822;28;20033;-75
2023/06/22 00:38:29;;;;;;;0.63;0.55;;;27.20;43.60;;;;;;5031957;28;20369;-75
2023/06/22 00:40:55;;;;;;;0.60;0.60;;;27.20;43.40;;;;;;5031903;28;20045;-76
2023/06/22 00:43:20;;;;;;;1.33;0.90;;;27.20;43.70;;;;;;5032116;28;20069;-76
2023/06/22 00:45:47;;;;;;;0.70;0.68;;;27.20;43.60;;;;;;5031888;28;20029;-76
2023/06/22 00:48:14;;;;;;;0.82;0.80;;;27.20;43.60;;;;;;5031773;28;20104;-76
2023/06/22 00:50:40;;;;;;;1.17;0.75;;;27.20;43.60;;;;;;5031782;28;20026;-76
2023/06/22 00:53:08;;;;;;;4.40;0.77;;;27.20;43.70;;;;;;5031670;28;20128;-76
2023/06/22 00:55:52;;;;;;;0.70;0.70;;;27.20;43.70;;;;;;5031812;28;20113;-76
2023/06/22 00:58:21;;;;;;;0.75;0.70;;;27.10;43.60;;;;;;5031781;28;20109;-76
2023/06/22 01:00:47;;;;;;;1.42;0.80;;;27.20;43.60;;;;;;5031698;28;20028;-76
2023/06/22 01:03:13;;;;;;;0.75;0.70;;;27.70;44.00;;;;;;5031541;28;20054;-76
2023/06/22 01:05:40;;;;;;;1.02;0.52;;;27.10;43.60;;;;;;5031757;28;20087;-76
2023/06/22 01:08:18;;;;;;;0.95;0.60;;;27.10;43.60;;;;;;5031737;28;20541;-76
2023/06/22 01:10:56;;;;;;;0.95;0.90;;;27.10;43.60;;;;;;5031609;28;20033;-76
2023/06/22 01:13:32;;;;;;;0.70;0.63;;;27.10;43.60;;;;;;5031607;28;20072;-76
2023/06/22 01:16:16;;;;;;;0.75;0.75;;;27.10;44.20;;;;;;5031646;28;20021;-76
2023/06/22 01:18:43;;;;;;;1.00;0.80;;;27.10;43.60;;;;;;5031617;28;20131;-76
2023/06/22 01:21:13;;;;;;;0.77;0.77;;;27.10;43.60;;;;;;5031553;28;20108;-76
2023/06/22 01:24:17;;;;;;;1.42;0.90;;;27.00;43.50;;;;;;5031514;28;20108;-76
2023/06/22 01:27:05;;;;;;;0.82;0.80;;;27.00;43.70;;;;;;5031425;28;20022;-76
2023/06/22 01:29:33;;;;;;;0.60;0.60;;;27.00;43.50;;;;;;5031519;28;20040;-76
2023/06/22 01:32:00;;;;;;;0.90;0.90;;;27.00;43.70;;;;;;5031370;28;20476;-76
2023/06/22 01:34:27;;;;;;;0.60;0.60;;;27.00;43.70;;;;;;5031190;28;20028;-75
2023/06/22 01:36:54;;;;;;;1.15;1.02;;;27.00;43.80;;;;;;5031725;28;20022;-75
2023/06/22 01:39:21;;;;;;;0.90;0.90;;;27.00;43.80;;;;;;5031333;28;20034;-76
2023/06/22 01:41:48;;;;;;;0.60;0.60;;;27.00;43.80;;;;;;5031414;28;20040;-75
2023/06/22 01:44:15;;;;;;;0.60;0.60;;;26.90;43.80;;;;;;5031619;28;20009;-75
2023/06/22 01:46:41;;;;;;;1.70;0.85;;;26.90;43.70;;;;;;5032856;28;20029;-76
2023/06/22 01:49:08;;;;;;;0.65;0.57;;;26.90;43.80;;;;;;5035412;28;20029;-75
2023/06/22 01:51:34;;;;;;;1.02;0.93;;;26.90;43.40;;;;;;5034794;28;20116;-76
2023/06/22 01:54:02;;;;;;;0.95;0.95;;;26.90;43.60;;;;;;5034819;28;20033;-76
2023/06/22 01:56:28;;;;;;;1.00;0.90;;;26.90;44.60;;;;;;5035182;28;20041;-76
2023/06/22 01:59:09;;;;;;;0.80;0.80;;;26.80;43.70;;;;;;5034922;28;20045;-76
2023/06/22 02:01:58;;;;;;;1.60;1.00;;;26.90;43.90;;;;;;5034521;28;20033;-76
2023/06/22 02:04:31;;;;;;;1.02;0.90;;;26.80;43.70;;;;;;5034670;28;20484;-76
2023/06/22 02:06:59;;;;;;;1.17;0.90;;;26.80;43.90;;;;;;5034631;28;20089;-76
2023/06/22 02:09:29;;;;;;;0.90;0.90;;;26.80;43.90;;;;;;5034663;28;20044;-76
2023/06/22 02:11:56;;;;;;;1.00;1.00;;;26.80;43.70;;;;;;5034584;28;20140;-76
2023/06/22 02:14:24;;;;;;;0.70;0.70;;;26.80;43.90;;;;;;5034842;28;20428;-76
2023/06/22 02:16:51;;;;;;;1.02;0.70;;;26.80;43.90;;;;;;5034657;28;20029;-76
2023/06/22 02:19:18;;;;;;;1.25;0.90;;;26.70;43.70;;;;;;5034558;28;20022;-76
2023/06/22 02:21:45;;;;;;;0.90;0.90;;;26.70;43.70;;;;;;5034522;28;20033;-75
2023/06/22 02:24:10;;;;;;;0.85;0.82;;;26.70;43.90;;;;;;5034463;28;20026;-75
2023/06/22 02:26:38;;;;;;;1.10;1.00;;;26.70;44.00;;;;;;5034382;28;20064;-76
2023/06/22 02:29:04;;;;;;;1.10;0.70;;;26.70;43.90;;;;;;5034467;28;20033;-75
2023/06/22 02:31:30;;;;;;;1.00;0.80;;;26.70;43.80;;;;;;5034260;28;20029;-76
2023/06/22 02:33:58;;;;;;;0.90;0.90;;;26.70;43.90;;;;;;5034530;28;20026;-75
2023/06/22 02:36:26;;;;;;;0.82;0.82;;;26.70;43.70;;;;;;5034084;28;20022;-75
2023/06/22 02:38:54;;;;;;;1.15;1.05;;;26.60;44.00;;;;;;5034328;28;20018;-75
2023/06/22 02:41:20;;;;;;;1.20;0.85;;;26.60;44.00;;;;;;5034453;28;20017;-75
2023/06/22 02:43:46;;;;;;;1.00;0.90;;;26.60;43.80;;;;;;5034229;28;20117;-76
2023/06/22 02:46:13;;;;;;;0.95;0.88;;;26.60;43.80;;;;;;5034395;28;20056;-75
2023/06/22 02:48:40;;;;;;;0.90;0.80;;;26.60;44.00;;;;;;5034279;28;20049;-75
2023/06/22 02:51:07;;;;;;;1.00;0.77;;;26.60;44.00;;;;;;5034174;28;20096;-76
2023/06/22 02:53:33;;;;;;;0.80;0.80;;;27.30;44.50;;;;;;5034291;28;20399;-75
2023/06/22 02:56:06;;;;;;;0.90;0.80;;;26.60;44.00;;;;;;5033832;28;20014;-75
2023/06/22 02:58:38;;;;;;;0.95;0.95;;;26.50;44.00;;;;;;5033773;28;20104;-75
2023/06/22 03:01:05;;;;;;;1.00;1.00;;;26.50;44.10;;;;;;5034137;28;20028;-75
2023/06/22 03:03:31;;;;;;;1.17;0.90;;;26.60;44.10;;;;;;5033535;28;20128;-75
2023/06/22 03:05:57;;;;;;;0.95;0.68;;;26.50;44.00;;;;;;5033642;28;20109;-75
2023/06/22 03:08:22;;;;;;;1.13;0.85;;;26.50;44.00;;;;;;5033635;28;20383;-75
2023/06/22 03:10:48;;;;;;;1.02;0.80;;;26.50;44.00;;;;;;5033608;28;20029;-75
2023/06/22 03:13:13;;;;;;;1.48;1.00;;;26.50;43.90;;;;;;5033489;28;20120;-75
2023/06/22 03:15:39;;;;;;;0.88;0.88;;;26.50;44.20;;;;;;5033439;28;20025;-76
2023/06/22 03:18:05;;;;;;;0.98;0.93;;;26.50;44.00;;;;;;5033483;28;20048;-75
2023/06/22 03:20:33;;;;;;;1.02;0.90;;;26.50;44.10;;;;;;5033449;28;20018;-75
2023/06/22 03:22:59;;;;;;;0.75;0.75;;;26.40;43.90;;;;;;5033279;28;20032;-75
2023/06/22 03:25:24;;;;;;;1.05;0.80;;;26.50;44.10;;;;;;5033396;28;20127;-75
2023/06/22 03:27:50;;;;;;;0.60;0.60;;;26.40;44.30;;;;;;5033299;28;20033;-75
2023/06/22 03:30:16;;;;;;;1.95;0.80;;;26.40;44.10;;;;;;5033198;28;20036;-76
2023/06/22 03:32:43;;;;;;;1.70;1.00;;;26.40;44.20;;;;;;5033211;28;20069;-75
2023/06/22 03:35:09;;;;;;;0.70;0.70;;;26.40;44.30;;;;;;5033057;28;20058;-75
2023/06/22 03:37:34;;;;;;;1.80;1.00;;;26.40;44.10;;;;;;5032957;28;20022;-75
2023/06/22 03:40:00;;;;;;;0.82;0.80;;;26.40;44.00;;;;;;5032852;28;20113;-75
2023/06/22 03:42:26;;;;;;;0.80;0.80;;;26.30;44.00;;;;;;5033093;28;20022;-75
2023/06/22 03:44:52;;;;;;;1.10;0.90;;;26.30;44.00;;;;;;5032789;28;20399;-75
2023/06/22 03:47:18;;;;;;;1.00;0.95;;;26.30;44.30;;;;;;5033147;28;20029;-75
2023/06/22 03:49:43;;;;;;;1.15;1.05;;;26.30;44.40;;;;;;5032931;28;20479;-75
2023/06/22 03:52:10;;;;;;;0.70;0.60;;;26.30;44.30;;;;;;5032631;28;20045;-75
2023/06/22 03:54:36;;;;;;;1.10;1.00;;;26.30;44.40;;;;;;5033014;28;20025;-75
2023/06/22 03:57:03;;;;;;;1.15;1.13;;;26.30;44.20;;;;;;5032426;28;20538;-75
2023/06/22 03:59:29;;;;;;;1.20;1.10;;;26.30;44.30;;;;;;5032599;28;20519;-75
2023/06/22 04:01:55;;;;;;;1.00;1.00;;;26.30;44.40;;;;;;5032547;28;20086;-75
2023/06/22 04:04:21;;;;;;;1.30;1.10;;;26.20;44.40;;;;;;5032692;28;20014;-75
2023/06/22 04:06:47;;;;;;;1.27;1.25;;;26.20;44.30;;;;;;5032916;28;20028;-75
2023/06/22 04:09:13;;;;;;;1.73;1.63;;;26.30;44.30;;;;;;5031834;28;20021;-75
2023/06/22 04:11:39;;;;;;;1.60;1.50;;;26.20;44.40;;;;;;5032208;28;20057;-75
2023/06/22 04:14:05;;;;;;;1.67;1.58;;;26.20;44.30;;;;;;5032472;28;20063;-75
2023/06/22 04:16:31;;;;;;;1.75;1.65;;;26.20;44.50;;;;;;5032283;28;20532;-76
2023/06/22 04:18:56;;;;;;;1.63;1.52;;;26.20;44.40;;;;;;5032152;28;20031;-76
2023/06/22 04:21:22;;;;;;;1.38;1.38;;;26.10;44.60;;;;;;5032202;28;20503;-75
2023/06/22 04:23:48;;;;;;;1.70;1.60;;;26.10;44.40;;;;;;5032268;28;20041;-75
2023/06/22 04:26:16;;;;;;;1.95;1.85;;;26.10;44.50;;;;;;5032097;28;20083;-75
2023/06/22 04:28:42;;;;;;;1.70;1.60;;;26.20;44.90;;;;;;5032224;28;20029;-75
2023/06/22 04:31:08;;;;;;;1.70;1.60;;;26.10;44.90;;;;;;5031935;28;20026;-75
2023/06/22 04:33:33;;;;;;;2.13;1.90;;;26.10;44.50;;;;;;5032033;28;20034;-75
2023/06/22 04:36:03;;;;;;;1.80;1.70;;;26.10;44.80;;;;;;5031969;28;20109;-76
2023/06/22 04:38:33;;;;;;;;;;;26.10;44.80;;;;;;5032435;28;20045;-75
2023/06/22 04:41:01;;;;;;;1.70;1.60;;;26.00;45.10;;;;;;5032015;28;19916;-75
2023/06/22 04:43:30;;;;;;;1.38;1.27;;;26.00;44.80;;;;;;5031923;28;20029;-75
2023/06/22 04:45:56;;;;;;;1.23;1.20;;;26.00;44.70;;;;;;5031865;28;20029;-75
2023/06/22 04:48:22;;;;;;;1.67;1.58;;;26.00;44.80;;;;;;5031859;28;20033;-75
2023/06/22 04:50:47;;;;;;;1.98;1.45;;;26.00;44.80;;;;;;5031901;28;20072;-75
2023/06/22 04:53:13;;;;;;;1.77;1.63;;;26.00;45.00;;;;;;5031740;28;20099;-75
2023/06/22 04:55:45;;;;;;;1.55;1.45;;;26.00;44.70;;;;;;5031955;28;20079;-75
2023/06/22 04:58:12;;;;;;;1.35;1.20;;;26.10;44.70;;;;;;5031805;28;20394;-75
2023/06/22 05:00:38;;;;;;;1.45;1.33;;;26.00;44.80;;;;;;5031856;28;20062;-75
2023/06/22 05:03:06;;;;;;;1.17;1.10;;;26.00;45.00;;;;;;5031537;28;20049;-75
2023/06/22 05:05:32;;;;;;;1.05;0.95;;;26.00;44.80;;;;;;5031665;28;20029;-75
2023/06/22 05:08:00;;;;;;;1.30;1.20;;;26.00;45.10;;;;;;5031655;28;20661;-75
2023/06/22 05:10:26;;;;;;;1.85;1.15;;;26.00;44.90;;;;;;5013845;28;20037;-75
2023/06/22 05:12:51;;;;;;;1.20;1.10;;;26.00;45.00;;;;;;5031510;28;20128;-75
2023/06/22 05:15:19;;;;;;;1.77;1.40;;;26.00;45.00;;;;;;5031463;28;20463;-75
2023/06/22 05:17:45;;;;;;;0.98;0.98;;;26.00;45.20;;;;;;5031666;28;20388;-75
2023/06/22 05:20:12;;;;;;;1.25;1.17;;;26.00;45.10;;;;;;5031450;28;20030;-75
2023/06/22 05:22:38;;;;;;;1.30;1.20;;;26.00;44.90;;;;;;5034492;28;20029;-75
2023/06/22 05:25:08;;;;;;;1.00;0.90;;;26.00;44.90;;;;;;5035474;28;20048;-76
2023/06/22 05:27:33;;;;;;;0.90;0.90;;;25.90;45.10;;;;;;5035756;28;20391;-80
2023/06/22 05:29:59;;;;;;;1.05;1.00;;;26.00;45.00;;;;;;5035478;28;20029;-75
2023/06/22 05:32:24;;;;;;;1.42;1.20;;;26.00;45.30;;;;;;5035295;28;20117;-75
2023/06/22 05:34:50;;;;;;;1.08;1.08;;;26.00;45.10;;;;;;5035267;28;20026;-75
2023/06/22 05:37:16;;;;;;;3.15;1.13;;;26.00;45.50;;;;;;5035230;28;20026;-75
2023/06/22 05:39:41;;;;;;;1.48;1.38;;;26.00;45.20;;;;;;5035315;28;20021;-75
2023/06/22 05:42:07;;;;;;;1.40;1.30;;;26.00;45.60;;;;;;5035539;28;20022;-76
2023/06/22 05:44:33;;;;;;;2.97;1.55;;;25.90;45.30;;;;;;5035186;28;20018;-76
2023/06/22 05:46:59;;;;;;;1.55;1.10;;;25.90;45.60;;;;;;5034988;28;20029;-74
2023/06/22 05:49:29;;;;;;;1.67;1.58;;;25.90;45.50;;;;;;5035108;28;20021;-76
2023/06/22 05:51:56;;;;;;;2.90;1.63;;;25.90;46.20;;;;;;5035148;28;20038;-76
2023/06/22 05:54:22;;;;;;;4.75;1.70;;;25.90;46.60;;;;;;5034983;28;20117;-78
2023/06/22 05:56:48;;;;;;;2.92;1.40;;;25.90;45.80;;;;;;5035089;28;20524;-76
2023/06/22 05:59:13;;;;;;;2.58;1.60;;;25.90;46.30;;;;;;5034891;28;20029;-76
2023/06/22 06:01:40;;;;;;;2.88;1.10;;;25.90;46.20;;;;;;5034525;28;20077;-75
2023/06/22 06:04:07;;;;;;;3.53;1.30;;;25.90;46.30;;;;;;5033816;28;20029;-77
2023/06/22 06:06:36;;;;;;;2.03;1.75;;;26.10;62.00;;;;;;5034701;28;20416;-77
2023/06/22 06:09:04;;;;;;;3.03;1.58;;;25.90;46.10;;;;;;5034772;28;20037;-77
2023/06/22 06:11:29;;;;;;;2.30;1.50;;;26.00;46.60;;;;;;5034637;28;20022;-77
2023/06/22 06:13:55;;;;;;;2.38;1.45;;;26.00;46.70;;;;;;5034620;28;20039;-77
2023/06/22 06:16:22;;;;;;;1.95;1.77;;;26.00;46.40;;;;;;5034520;28;20025;-77
2023/06/22 06:18:51;;;;;;;2.17;1.67;;;26.00;46.50;;;;;;5034359;28;20029;-74
2023/06/22 06:21:16;;;;;;;3.97;1.80;;;25.90;46.70;;;;;;5034394;28;20092;-78
2023/06/22 06:23:42;;;;;;;3.17;1.60;;;26.00;46.80;;;;;;5034392;28;20029;-78
2023/06/22 06:26:08;;;;;;;2.00;1.70;;;26.00;47.60;;;;;;5034626;28;20128;-77
2023/06/22 06:28:35;;;;;;;1.98;1.70;;;26.00;47.60;;;;;;5034267;28;20087;-78
2023/06/22 06:31:01;;;;;;;1.90;1.35;;;26.00;46.80;;;;;;5033275;28;20440;-78
2023/06/22 06:33:27;;;;;;;2.42;1.45;;;26.00;47.00;;;;;;5033825;28;20061;-77
2023/06/22 06:35:55;;;;;;;2.13;1.60;;;;;;;;;;5034249;28;20383;-77
2023/06/22 06:38:21;;;;;;;2.83;1.45;;;26.10;62.90;;;;;;5034323;28;20037;-77
2023/06/22 06:40:48;;;;;;;5.50;1.88;;;26.00;47.30;;;;;;5034002;28;20048;-75
2023/06/22 06:43:15;;;;;;;2.10;1.60;;;26.00;47.00;;;;;;5034268;28;20029;-79
2023/06/22 06:45:41;;;;;;;3.08;1.55;;;26.00;47.00;;;;;;5033894;28;20030;-78
2023/06/22 06:48:07;;;;;;;2.92;1.70;;;26.00;47.30;;;;;;5033971;28;20025;-80
2023/06/22 06:50:33;;;;;;;1.95;1.77;;;26.00;47.10;;;;;;5033944;28;20113;-79
2023/06/22 06:52:59;;;;;;;1.90;1.23;;;26.00;47.40;;;;;;5034049;28;20084;-79
2023/06/22 06:55:25;;;;;;;1.88;1.45;;;26.00;47.20;;;;;;5034074;28;20104;-80
2023/06/22 06:57:52;;;;;;;1.95;1.40;;;26.00;47.20;;;;;;5034036;28;20044;-79
2023/06/22 07:00:19;;;;;;;1.60;1.40;;;26.00;47.40;;;;;;5033689;28;20033;-80
2023/06/22 07:02:47;;;;;;;2.95;1.50;;;26.00;47.40;;;;;;5033298;28;20045;-79
2023/06/22 07:05:13;;;;;;;2.53;1.60;;;26.00;47.50;;;;;;5033612;28;20580;-79
2023/06/22 07:07:41;;;;;;;1.75;1.50;;;26.00;47.60;;;;;;5033778;28;20026;-79
2023/06/22 07:10:07;;;;;;;3.63;1.50;;;26.10;47.80;;;;;;5033881;28;20017;-76
2023/06/22 07:12:34;;;;;;;1.58;1.48;;;26.10;47.70;;;;;;5033942;28;20048;-75
2023/06/22 07:15:08;;;;;;;2.03;1.15;;;26.10;47.70;;;;;;5033537;28;20025;-75
2023/06/22 07:17:34;;;;;;;2.28;1.60;;;26.10;47.70;;;;;;5033538;28;20109;-75
2023/06/22 07:20:01;;;;;;;1.42;1.25;;;26.10;47.80;;;;;;5033215;28;20025;-75
2023/06/22 07:22:26;;;;;;;2.35;1.27;;;26.10;47.70;;;;;;5033167;28;20021;-75
2023/06/22 07:24:52;;;;;;;1.65;1.55;;;26.10;47.50;;;;;;5033245;28;20034;-75
2023/06/22 07:27:19;;;;;;;2.17;1.48;;;26.10;47.80;;;;;;5033281;28;20037;-75
2023/06/22 07:29:45;;;;;;;1.83;1.30;;;26.10;47.80;;;;;;5033204;28;20384;-75
2023/06/22 07:32:11;;;;;;;1.67;1.15;;;26.10;47.90;;;;;;5033053;28;20041;-75
2023/06/22 07:34:37;;;;;;;3.83;1.33;;;26.10;47.90;;;;;;5033311;28;20021;-76
2023/06/22 07:37:04;;;;;;;1.60;1.08;;;26.20;48.00;;;;;;5033305;28;20025;-76
2023/06/22 07:39:30;;;;;;;3.38;1.27;;;26.20;48.60;;;;;;5033104;28;20064;-76
2023/06/22 07:41:56;;;;;;;1.52;1.23;;;26.20;47.90;;;;;;5033148;28;20022;-75
2023/06/22 07:44:22;;;;;;;3.20;1.55;;;26.20;48.00;;;;;;5032122;28;20029;-75
2023/06/22 07:46:48;;;;;;;2.65;1.33;;;26.20;47.90;;;;;;5031564;28;20099;-75
2023/06/22 07:49:13;;;;;;;1.80;1.48;;;26.30;48.00;;;;;;5032807;28;20033;-75
2023/06/22 07:51:39;;;;;;;1.77;1.45;;;26.30;48.00;;;;;;5032959;28;20547;-75
2023/06/22 07:54:05;;;;;;;2.72;1.17;;;26.30;47.80;;;;;;5032623;28;20060;-76
2023/06/22 07:56:30;;;;;;;1.02;0.90;;;26.30;47.80;;;;;;5032620;28;20104;-75
2023/06/22 07:58:58;;;;;;;1.08;0.90;;;26.20;47.80;;;;;;5032674;28;20105;-76
2023/06/22 08:01:24;;;;;;;1.50;1.40;;;25.80;63.50;;;;;;5031277;28;20370;-76
2023/06/22 08:03:50;;;;;;;1.42;1.10;;;26.20;48.00;;;;;;5032476;28;20042;-76
2023/06/22 08:06:16;;;;;;;1.25;1.02;;;26.30;48.10;;;;;;5032299;28;20025;-75
2023/06/22 08:08:42;;;;;;;2.00;1.25;;;26.30;48.10;;;;;;5032318;28;20028;-76
2023/06/22 08:11:08;;;;;;;3.75;1.20;;;26.30;48.30;;;;;;5032213;28;20021;-76
2023/06/22 08:13:34;;;;;;;3.88;1.63;;;26.30;48.30;;;;;;5031136;28;20121;-76
2023/06/22 08:15:59;;;;;;;1.45;1.02;;;26.30;48.40;;;;;;5032195;28;20021;-76
2023/06/22 08:18:25;;;;;;;2.35;1.25;;;26.30;48.50;;;;;;5032303;28;20083;-76
2023/06/22 08:20:51;;;;;;;1.77;1.25;;;26.30;49.10;;;;;;5032187;28;20018;-76
2023/06/22 08:23:16;;;;;;;1.45;1.25;;;26.30;48.30;;;;;;5032456;28;20014;-76
2023/06/22 08:25:42;;;;;;;2.78;1.27;;;26.40;48.50;;;;;;5032207;28;20502;-76
2023/06/22 08:28:08;;;;;;;1.20;0.93;;;26.40;48.50;;;;;;5032115;28;20045;-76
2023/06/22 08:30:34;;;;;;;1.92;1.33;;;26.40;48.50;;;;;;5032184;28;20329;-76
2023/06/22 08:32:59;;;;;;;3.08;1.42;;;26.50;48.70;;;;;;5032059;28;20069;-76
2023/06/22 08:35:25;;;;;;;2.05;1.10;;;26.50;48.60;;;;;;5032157;28;20522;-76
2023/06/22 08:37:54;;;;;;;1.83;1.20;;;26.50;48.70;;;;;;5032030;28;20036;-76
2023/06/22 08:40:21;;;;;;;1.35;1.10;;;26.50;48.10;;;;;;5031970;28;20022;-76
2023/06/22 08:42:47;;;;;;;1.55;1.10;;;26.50;48.70;;;;;;5032225;28;20083;-76
2023/06/22 08:45:14;;;;;;;1.55;1.27;;;26.60;48.80;;;;;;5031844;28;20156;-76
2023/06/22 08:47:43;;;;;;;2.55;1.20;;;26.60;48.70;;;;;;5031961;28;20026;-76
2023/06/22 08:50:10;;;;;;;1.27;1.17;;;26.60;48.70;;;;;;5031831;28;20025;-76
2023/06/22 08:52:37;;;;;;;3.35;1.40;;;26.60;48.80;;;;;;5031843;28;20100;-76
2023/06/22 08:55:03;;;;;;;1.77;1.15;;;26.60;49.00;;;;;;5031549;28;20025;-76
2023/06/22 08:57:30;;;;;;;1.10;1.00;;;26.60;49.00;;;;;;5032263;28;20372;-76
2023/06/22 08:59:58;;;;;;;1.25;1.15;;;26.70;48.90;;;;;;5031981;28;20079;-77
2023/06/22 09:02:31;;;;;;;1.67;1.20;;;26.70;49.00;;;;;;5031478;28;20056;-76
2023/06/22 09:04:59;;;;;;;2.30;1.50;;;26.70;48.90;;;;;;5031585;28;20056;-76
2023/06/22 09:07:25;;;;;;;2.03;1.02;;;26.70;48.90;;;;;;5031635;28;20029;-76
2023/06/22 09:09:51;;;;;;;1.10;1.00;;;26.70;48.90;;;;;;5031685;28;20032;-76
2023/06/22 09:12:22;;;;;;;2.00;1.25;;;26.70;48.80;;;;;;5031461;28;20041;-76
2023/06/22 09:14:48;;;;;;;1.80;1.02;;;26.80;49.00;;;;;;5031890;28;20060;-76
2023/06/22 09:17:13;;;;;;;1.88;1.30;;;26.80;49.10;;;;;;5031578;28;20057;-76
2023/06/22 09:19:39;;;;;;;1.73;1.20;;;26.80;49.00;;;;;;5031715;28;20022;-76
2023/06/22 09:22:06;;;;;;;1.15;1.08;;;26.80;49.00;;;;;;5031536;28;20029;-76
2023/06/22 09:24:32;;;;;;;1.40;1.30;;;26.90;49.00;;;;;;5031384;28;20048;-76
2023/06/22 09:26:57;;;;;;;1.45;1.20;;;27.00;49.00;;;;;;5031432;28;20029;-76
2023/06/22 09:29:23;;;;;;;1.33;1.23;;;27.00;49.00;;;;;;5031353;28;20033;-76
2023/06/22 09:31:49;;;;;;;2.10;1.20;;;27.00;49.00;;;;;;5030150;28;20060;-76
2023/06/22 09:34:14;;;;;;;1.40;1.17;;;27.00;48.90;;;;;;5031341;28;20033;-76
2023/06/22 09:36:41;;;;;;;1.40;1.30;;;27.10;48.90;;;;;;5031513;28;20079;-76
2023/06/22 09:39:07;;;;;;;1.50;1.27;;;27.10;49.00;;;;;;5031515;28;20022;-76
2023/06/22 09:41:32;;;;;;;1.30;1.02;;;27.10;48.80;;;;;;5031452;28;20079;-76
2023/06/22 09:43:58;;;;;;;2.70;1.27;;;27.10;48.90;;;;;;5031426;28;20380;-76
2023/06/22 09:46:27;;;;;;;1.48;1.38;;;27.20;49.10;;;;;;5031419;28;20043;-76
2023/06/22 09:48:53;;;;;;;1.67;1.42;;;27.10;49.00;;;;;;5031512;28;20017;-76
2023/06/22 09:51:21;;;;;;;2.03;1.38;;;27.10;49.00;;;;;;5031784;28;20026;-76
2023/06/22 09:53:47;;;;;;;1.63;1.15;;;27.20;49.00;;;;;;5031465;28;20025;-76
2023/06/22 09:56:14;;;;;;;2.33;1.25;;;27.20;49.00;;;;;;5031344;28;20021;-76
2023/06/22 09:58:46;;;;;;;1.85;1.23;;;27.20;49.30;;;;;;5031472;28;20030;-76
2023/06/22 10:01:12;;;;;;;2.10;1.23;;;27.00;64.50;;;;;;5031174;28;20431;-76
2023/06/22 10:03:38;;;;;;;1.38;1.27;;;27.20;49.30;;;;;;5030967;28;20045;-76
2023/06/22 10:06:04;;;;;;;1.58;1.17;;;27.20;49.20;;;;;;5031196;28;20117;-76
2023/06/22 10:08:30;;;;;;;2.10;1.33;;;27.20;49.20;;;;;;5032584;28;20074;-76
2023/06/22 10:10:55;;;;;;;1.80;1.55;;;27.20;49.10;;;;;;5034745;28;20459;-76
2023/06/22 10:13:21;;;;;;;1.98;1.25;;;27.20;49.10;;;;;;5034680;28;20423;-76
2023/06/22 10:15:51;;;;;;;2.05;1.10;;;27.30;49.20;;;;;;5034584;28;20025;-76
2023/06/22 10:18:17;;;;;;;1.25;1.10;;;27.30;49.30;;;;;;5034525;28;20108;-77
2023/06/22 10:20:43;;;;;;;1.40;1.30;;;27.30;49.60;;;;;;5034531;28;20059;-77
2023/06/22 10:23:09;;;;;;;2.40;1.35;;;27.30;49.30;;;;;;5034635;28;20567;-77
2023/06/22 10:25:35;;;;;;;1.67;1.40;;;27.30;49.40;;;;;;5034373;28;20033;-78
2023/06/22 10:28:00;;;;;;;2.03;1.60;;;27.30;49.60;;;;;;5034411;28;20025;-76
2023/06/22 10:30:26;;;;;;;1.60;1.40;;;27.30;49.60;;;;;;5034366;28;20479;-75
2023/06/22 10:32:52;;;;;;;2.50;1.70;;;27.30;49.50;;;;;;5034250;28;20038;-75
2023/06/22 10:35:17;;;;;;;2.40;1.60;;;27.30;49.70;;;;;;5034333;28;20426;-75
2023/06/22 10:37:44;;;;;;;3.03;2.40;;;27.40;49.70;;;;;;5034061;28;20039;-74
2023/06/22 10:40:12;;;;;;;2.05;1.85;;;27.40;49.70;;;;;;5034222;28;20030;-73
2023/06/22 10:42:38;;;;;;;2.78;2.30;;;27.40;49.70;;;;;;5034313;28;20103;-75
2023/06/22 10:45:04;;;;;;;2.22;1.52;;;27.40;49.70;;;;;;5032994;28;20491;-75
2023/06/22 10:47:29;;;;;;;2.00;1.80;;;27.40;49.90;;;;;;5034232;28;20021;-75
2023/06/22 10:49:55;;;;;;;2.50;2.22;;;27.40;49.90;;;;;;5033953;28;20427;-79
2023/06/22 10:52:20;;;;;;;1.85;1.75;;;27.40;49.90;;;;;;5033810;28;20041;-75
2023/06/22 10:54:46;;;;;;;2.00;1.73;;;27.40;49.80;;;;;;5033576;28;20032;-74
2023/06/22 10:57:13;;;;;;;3.15;2.13;;;27.40;49.90;;;;;;5032901;28;20032;-75
2023/06/22 10:59:39;;;;;;;2.92;2.08;;;27.40;49.90;;;;;;5033879;28;20033;-76
2023/06/22 11:02:05;;;;;;;4.35;2.17;;;27.40;49.90;;;;;;5033282;28;20046;-76
2023/06/22 11:04:31;;;;;;;2.47;2.28;;;27.50;49.90;;;;;;5033927;28;20029;-76
2023/06/22 11:06:58;;;;;;;3.60;2.28;;;27.40;49.90;;;;;;5033350;28;20074;-76
2023/06/22 11:09:24;;;;;;;4.45;2.20;;;27.40;49.70;;;;;;5032320;28;20040;-76
2023/06/22 11:11:54;;;;;;;2.10;1.90;;;27.50;50.60;;;;;;5033381;28;20033;-76
2023/06/22 11:14:20;;;;;;;2.50;2.22;;;27.50;50.00;;;;;;5033467;28;20033;-76
2023/06/22 11:16:49;;;;;;;2.78;1.85;;;27.50;49.80;;;;;;5033262;28;20488;-76
2023/06/22 11:19:15;;;;;;;2.53;2.00;;;27.40;49.70;;;;;;5030898;28;20029;-76
2023/06/22 11:21:40;;;;;;;2.33;1.75;;;27.50;49.90;;;;;;5033101;28;20028;-76
2023/06/22 11:24:06;;;;;;;3.65;2.10;;;27.50;50.00;;;;;;5033159;28;20029;-76
2023/06/22 11:26:32;;;;;;;3.50;2.20;;;27.50;50.00;;;;;;5033141;28;20503;-76
2023/06/22 11:28:58;;;;;;;3.88;2.05;;;27.50;49.70;;;;;;5033265;28;20029;-76
2023/06/22 11:31:24;;;;;;;3.65;2.08;;;27.50;49.80;;;;;;5033154;28;20126;-76
2023/06/22 11:33:50;;;;;;;3.47;3.05;;;27.50;49.80;;;;;;5033149;28;20191;-76
2023/06/22 11:36:16;;;;;;;2.88;2.38;;;27.50;49.60;;;;;;5015292;28;20048;-76
2023/06/22 11:38:42;;;;;;;2.50;2.28;;;27.50;49.80;;;;;;5032865;28;20041;-76
2023/06/22 11:41:09;;;;;;;4.70;3.05;;;27.50;50.00;;;;;;5032927;28;20421;-76
2023/06/22 11:43:35;;;;;;;3.90;3.40;;;27.50;50.10;;;;;;5032831;28;20096;-76
2023/06/22 11:46:03;;;;;;;4.30;3.42;;;27.50;49.70;;;;;;5033003;28;20076;-76
2023/06/22 11:48:29;;;;;;;4.97;2.75;;;27.50;49.90;;;;;;5032755;28;20113;-76
2023/06/22 11:50:55;;;;;;;2.78;2.58;;;27.50;50.10;;;;;;5032815;28;20216;-76
2023/06/22 11:53:23;;;;;;;3.25;2.97;;;27.50;50.00;;;;;;5032767;28;20432;-76
2023/06/22 11:55:49;;;;;;;3.40;2.63;;;27.60;50.10;;;;;;5032865;28;20044;-76
2023/06/22 11:58:16;;;;;;;2.67;2.42;;;27.60;50.30;;;;;;5032966;28;20482;-76
2023/06/22 12:00:42;;;;;;;6.45;2.92;;;27.60;50.50;;;;;;5032485;28;20024;-76
2023/06/22 12:03:09;;;;;;;2.63;2.42;;;27.60;50.10;;;;;;5032323;28;20060;-76
2023/06/22 12:05:35;;;;;;;2.30;2.13;;;27.60;50.20;;;;;;5032713;28;20100;-78
2023/06/22 12:08:01;;;;;;;3.00;2.50;;;27.60;50.10;;;;;;5032547;28;20483;-77
2023/06/22 12:10:28;;;;;;;2.75;2.55;;;27.60;50.40;;;;;;5032600;28;20405;-77
2023/06/22 12:12:54;;;;;;;4.10;2.42;;;27.60;50.60;;;;;;5032478;28;20029;-77
2023/06/22 12:15:20;;;;;;;5.22;2.72;;;27.60;50.90;;;;;;5032392;28;20045;-77
2023/06/22 12:17:48;;;;;;;5.18;3.00;;;27.60;50.10;;;;;;5032128;28;20044;-77
2023/06/22 12:20:14;;;;;;;2.70;2.50;;;27.60;50.20;;;;;;5032134;28;20388;-77
2023/06/22 12:22:41;;;;;;;2.45;2.25;;;27.60;50.40;;;;;;5032231;28;20022;-77
2023/06/22 12:25:08;;;;;;;2.95;2.60;;;27.60;50.30;;;;;;5032060;28;20036;-79
2023/06/22 12:27:35;;;;;;;3.53;2.75;;;27.60;50.50;;;;;;5032366;28;20028;-79
2023/06/22 12:30:01;;;;;;;4.68;2.50;;;27.60;50.30;;;;;;5031861;28;20025;-80
2023/06/22 12:32:28;;;;;;;5.53;2.75;;;27.60;50.50;;;;;;5032092;28;20084;-79
2023/06/22 12:34:53;;;;;;;5.47;2.83;;;27.60;50.70;;;;;;5031882;28;20021;-78
2023/06/22 12:37:19;;;;;;;4.47;2.67;;;27.60;50.40;;;;;;5031845;28;20025;-79
2023/06/22 12:39:45;;;;;;;3.72;2.28;;;27.60;50.60;;;;;;5031959;28;20167;-79
2023/06/22 12:42:11;;;;;;;3.42;2.58;;;27.60;50.40;;;;;;5031935;28;20034;-80
2023/06/22 12:44:40;;;;;;;2.80;2.30;;;27.60;50.70;;;;;;5031884;28;20140;-80
2023/06/22 12:47:08;;;;;;;3.00;2.58;;;27.60;50.80;;;;;;5031255;28;20148;-77